sensor_id;sensor_type;location;lat;lon;timestamp;temperature;humidity
78536;SHT31;67829;51.968;5.684;2023-08-06T00:01:22;18.7;69.1
78536;SHT31;67829;51.968;5.684;2023-08-06T00:03:51;18.7;69.4
78536;SHT31;67829;51.968;5.684;2023-08-06T00:06:20;18.7;69.4
78536;SHT31;67829;51.968;5.684;2023-08-06T00:08:49;18.7;69.4
78536;SHT31;67829;51.968;5.684;2023-08-06T00:11:17;18.7;69.4
78536;SHT31;67829;51.968;5.684;2023-08-06T00:13:46;18.7;69.3
78536;SHT31;67829;51.968;5.684;2023-08-06T00:16:15;18.7;69.3
78536;SHT31;67829;51.968;5.684;2023-08-06T00:18:43;18.7;69.5
78536;SHT31;67829;51.968;5.684;2023-08-06T00:21:12;18.7;69.8
78536;SHT31;67829;51.968;5.684;2023-08-06T00:23:41;18.7;69.6
78536;SHT31;67829;51.968;5.684;2023-08-06T00:26:09;18.7;69.7
78536;SHT31;67829;51.968;5.684;2023-08-06T00:28:38;18.7;69.7
78536;SHT31;67829;51.968;5.684;2023-08-06T00:31:07;18.7;69.8
78536;SHT31;67829;51.968;5.684;2023-08-06T00:33:35;18.7;70.0
78536;SHT31;67829;51.968;5.684;2023-08-06T00:36:04;18.7;70.1
78536;SHT31;67829;51.968;5.684;2023-08-06T00:38:33;18.7;70.3
78536;SHT31;67829;51.968;5.684;2023-08-06T00:41:01;18.7;70.5
78536;SHT31;67829;51.968;5.684;2023-08-06T00:43:30;18.7;71.1
78536;SHT31;67829;51.968;5.684;2023-08-06T00:46:02;18.7;70.9
78536;SHT31;67829;51.968;5.684;2023-08-06T00:48:31;18.7;70.9
78536;SHT31;67829;51.968;5.684;2023-08-06T00:51:01;18.7;71.0
78536;SHT31;67829;51.968;5.684;2023-08-06T00:53:30;18.7;70.4
78536;SHT31;67829;51.968;5.684;2023-08-06T00:55:59;18.7;70.5
78536;SHT31;67829;51.968;5.684;2023-08-06T00:58:29;18.7;71.0
78536;SHT31;67829;51.968;5.684;2023-08-06T01:01:00;18.6;71.0
78536;SHT31;67829;51.968;5.684;2023-08-06T01:03:30;18.6;71.2
78536;SHT31;67829;51.968;5.684;2023-08-06T01:06:00;18.6;71.2
78536;SHT31;67829;51.968;5.684;2023-08-06T01:08:40;18.6;71.6
78536;SHT31;67829;51.968;5.684;2023-08-06T01:11:22;18.6;71.3
78536;SHT31;67829;51.968;5.684;2023-08-06T01:14:02;18.6;71.3
78536;SHT31;67829;51.968;5.684;2023-08-06T01:16:33;18.6;71.6
78536;SHT31;67829;51.968;5.684;2023-08-06T01:19:03;18.6;71.7
78536;SHT31;67829;51.968;5.684;2023-08-06T01:21:31;18.6;71.8
78536;SHT31;67829;51.968;5.684;2023-08-06T01:24:00;18.6;71.8
78536;SHT31;67829;51.968;5.684;2023-08-06T01:26:41;18.6;71.8
78536;SHT31;67829;51.968;5.684;2023-08-06T01:29:11;18.6;72.1
78536;SHT31;67829;51.968;5.684;2023-08-06T01:31:47;18.6;72.2
78536;SHT31;67829;51.968;5.684;2023-08-06T01:34:21;18.6;72.3
78536;SHT31;67829;51.968;5.684;2023-08-06T01:36:50;18.5;72.7
78536;SHT31;67829;51.968;5.684;2023-08-06T01:39:20;18.5;72.8
78536;SHT31;67829;51.968;5.684;2023-08-06T01:41:49;18.5;73.0
78536;SHT31;67829;51.968;5.684;2023-08-06T01:44:17;18.5;72.9
78536;SHT31;67829;51.968;5.684;2023-08-06T01:46:48;18.5;73.1
78536;SHT31;67829;51.968;5.684;2023-08-06T01:49:17;18.5;72.8
78536;SHT31;67829;51.968;5.684;2023-08-06T01:51:45;18.5;73.0
78536;SHT31;67829;51.968;5.684;2023-08-06T01:54:14;18.5;73.3
78536;SHT31;67829;51.968;5.684;2023-08-06T01:56:43;18.5;73.3
78536;SHT31;67829;51.968;5.684;2023-08-06T01:59:11;18.5;73.3
78536;SHT31;67829;51.968;5.684;2023-08-06T02:01:40;18.5;73.5
78536;SHT31;67829;51.968;5.684;2023-08-06T02:04:10;18.5;73.6
78536;SHT31;67829;51.968;5.684;2023-08-06T02:06:39;18.5;73.4
78536;SHT31;67829;51.968;5.684;2023-08-06T02:09:07;18.5;73.3
78536;SHT31;67829;51.968;5.684;2023-08-06T02:11:36;18.5;73.0
78536;SHT31;67829;51.968;5.684;2023-08-06T02:14:05;18.4;73.1
78536;SHT31;67829;51.968;5.684;2023-08-06T02:16:33;18.4;73.3
78536;SHT31;67829;51.968;5.684;2023-08-06T02:19:02;18.4;73.5
78536;SHT31;67829;51.968;5.684;2023-08-06T02:21:30;18.4;73.4
78536;SHT31;67829;51.968;5.684;2023-08-06T02:23:59;18.4;73.5
78536;SHT31;67829;51.968;5.684;2023-08-06T02:26:30;18.5;73.2
78536;SHT31;67829;51.968;5.684;2023-08-06T02:28:58;18.5;73.4
78536;SHT31;67829;51.968;5.684;2023-08-06T02:31:27;18.5;73.2
78536;SHT31;67829;51.968;5.684;2023-08-06T02:33:56;18.5;73.4
78536;SHT31;67829;51.968;5.684;2023-08-06T02:36:25;18.5;73.1
78536;SHT31;67829;51.968;5.684;2023-08-06T02:38:55;18.5;73.1
78536;SHT31;67829;51.968;5.684;2023-08-06T02:41:24;18.5;73.1
78536;SHT31;67829;51.968;5.684;2023-08-06T02:43:53;18.5;73.0
78536;SHT31;67829;51.968;5.684;2023-08-06T02:46:21;18.5;73.2
78536;SHT31;67829;51.968;5.684;2023-08-06T02:48:50;18.5;73.0
78536;SHT31;67829;51.968;5.684;2023-08-06T02:51:18;18.5;73.2
78536;SHT31;67829;51.968;5.684;2023-08-06T02:53:47;18.5;72.8
78536;SHT31;67829;51.968;5.684;2023-08-06T02:56:16;18.5;72.9
78536;SHT31;67829;51.968;5.684;2023-08-06T02:58:45;18.5;72.8
78536;SHT31;67829;51.968;5.684;2023-08-06T03:01:16;18.5;72.8
78536;SHT31;67829;51.968;5.684;2023-08-06T03:03:45;18.5;72.8
78536;SHT31;67829;51.968;5.684;2023-08-06T03:06:14;18.5;73.1
78536;SHT31;67829;51.968;5.684;2023-08-06T03:08:42;18.5;73.0
78536;SHT31;67829;51.968;5.684;2023-08-06T03:11:11;18.6;73.0
78536;SHT31;67829;51.968;5.684;2023-08-06T03:13:40;18.6;72.7
78536;SHT31;67829;51.968;5.684;2023-08-06T03:16:08;18.6;72.6
78536;SHT31;67829;51.968;5.684;2023-08-06T03:18:37;18.6;72.8
78536;SHT31;67829;51.968;5.684;2023-08-06T03:21:06;18.6;72.6
78536;SHT31;67829;51.968;5.684;2023-08-06T03:23:34;18.6;72.7
78536;SHT31;67829;51.968;5.684;2023-08-06T03:26:03;18.6;72.6
78536;SHT31;67829;51.968;5.684;2023-08-06T03:28:32;18.6;72.5
78536;SHT31;67829;51.968;5.684;2023-08-06T03:31:02;18.6;72.5
78536;SHT31;67829;51.968;5.684;2023-08-06T03:33:30;18.6;72.5
78536;SHT31;67829;51.968;5.684;2023-08-06T03:35:59;18.6;72.5
78536;SHT31;67829;51.968;5.684;2023-08-06T03:38:28;18.6;72.6
78536;SHT31;67829;51.968;5.684;2023-08-06T03:40:57;18.6;72.7
78536;SHT31;67829;51.968;5.684;2023-08-06T03:43:25;18.5;72.6
78536;SHT31;67829;51.968;5.684;2023-08-06T03:45:54;18.5;72.5
78536;SHT31;67829;51.968;5.684;2023-08-06T03:48:22;18.5;72.4
78536;SHT31;67829;51.968;5.684;2023-08-06T03:50:51;18.5;72.4
78536;SHT31;67829;51.968;5.684;2023-08-06T03:53:20;18.5;72.6
78536;SHT31;67829;51.968;5.684;2023-08-06T03:55:48;18.5;72.5
78536;SHT31;67829;51.968;5.684;2023-08-06T03:58:17;18.5;72.7
78536;SHT31;67829;51.968;5.684;2023-08-06T04:00:46;18.5;72.6
78536;SHT31;67829;51.968;5.684;2023-08-06T04:03:16;18.5;72.7
78536;SHT31;67829;51.968;5.684;2023-08-06T04:05:45;18.5;72.7
78536;SHT31;67829;51.968;5.684;2023-08-06T04:08:13;18.5;72.7
78536;SHT31;67829;51.968;5.684;2023-08-06T04:10:42;18.5;72.7
78536;SHT31;67829;51.968;5.684;2023-08-06T04:13:10;18.5;72.7
78536;SHT31;67829;51.968;5.684;2023-08-06T04:15:41;18.5;72.6
78536;SHT31;67829;51.968;5.684;2023-08-06T04:18:10;18.5;72.8
78536;SHT31;67829;51.968;5.684;2023-08-06T04:20:44;18.5;72.8
78536;SHT31;67829;51.968;5.684;2023-08-06T04:23:13;18.5;72.7
78536;SHT31;67829;51.968;5.684;2023-08-06T04:25:42;18.5;72.6
78536;SHT31;67829;51.968;5.684;2023-08-06T04:28:12;18.5;72.6
78536;SHT31;67829;51.968;5.684;2023-08-06T04:30:43;18.5;72.8
78536;SHT31;67829;51.968;5.684;2023-08-06T04:33:13;18.5;72.8
78536;SHT31;67829;51.968;5.684;2023-08-06T04:35:42;18.5;72.6
78536;SHT31;67829;51.968;5.684;2023-08-06T04:38:11;18.5;72.7
78536;SHT31;67829;51.968;5.684;2023-08-06T04:40:40;18.5;72.7
78536;SHT31;67829;51.968;5.684;2023-08-06T04:43:09;18.5;72.7
78536;SHT31;67829;51.968;5.684;2023-08-06T04:45:37;18.5;73.0
78536;SHT31;67829;51.968;5.684;2023-08-06T04:48:07;18.6;73.1
78536;SHT31;67829;51.968;5.684;2023-08-06T04:50:35;18.6;73.1
78536;SHT31;67829;51.968;5.684;2023-08-06T04:53:04;18.6;73.1
78536;SHT31;67829;51.968;5.684;2023-08-06T04:55:32;18.6;73.0
78536;SHT31;67829;51.968;5.684;2023-08-06T04:58:01;18.6;72.7
78536;SHT31;67829;51.968;5.684;2023-08-06T05:00:30;18.6;72.8
78536;SHT31;67829;51.968;5.684;2023-08-06T05:02:59;18.7;73.2
78536;SHT31;67829;51.968;5.684;2023-08-06T05:05:28;18.7;73.1
78536;SHT31;67829;51.968;5.684;2023-08-06T05:07:57;18.7;73.3
78536;SHT31;67829;51.968;5.684;2023-08-06T05:10:26;18.7;72.7
78536;SHT31;67829;51.968;5.684;2023-08-06T05:12:55;18.7;73.1
78536;SHT31;67829;51.968;5.684;2023-08-06T05:15:26;18.7;72.8
78536;SHT31;67829;51.968;5.684;2023-08-06T05:17:56;18.8;72.6
78536;SHT31;67829;51.968;5.684;2023-08-06T05:20:25;18.8;72.8
78536;SHT31;67829;51.968;5.684;2023-08-06T05:22:53;18.8;72.7
78536;SHT31;67829;51.968;5.684;2023-08-06T05:25:22;18.8;72.5
78536;SHT31;67829;51.968;5.684;2023-08-06T05:27:51;18.8;72.7
78536;SHT31;67829;51.968;5.684;2023-08-06T05:30:21;18.9;72.7
78536;SHT31;67829;51.968;5.684;2023-08-06T05:32:50;18.9;72.6
78536;SHT31;67829;51.968;5.684;2023-08-06T05:35:18;18.9;72.5
78536;SHT31;67829;51.968;5.684;2023-08-06T05:37:47;18.9;72.6
78536;SHT31;67829;51.968;5.684;2023-08-06T05:40:16;18.9;72.1
78536;SHT31;67829;51.968;5.684;2023-08-06T05:42:45;19.0;72.5
78536;SHT31;67829;51.968;5.684;2023-08-06T05:45:14;19.0;72.4
78536;SHT31;67829;51.968;5.684;2023-08-06T05:47:43;19.0;72.4
78536;SHT31;67829;51.968;5.684;2023-08-06T05:50:11;19.0;72.1
78536;SHT31;67829;51.968;5.684;2023-08-06T05:52:40;19.0;72.0
78536;SHT31;67829;51.968;5.684;2023-08-06T05:55:09;19.0;71.8
78536;SHT31;67829;51.968;5.684;2023-08-06T05:57:38;19.0;72.0
78536;SHT31;67829;51.968;5.684;2023-08-06T06:00:07;19.0;71.9
78536;SHT31;67829;51.968;5.684;2023-08-06T06:02:36;19.1;71.5
78536;SHT31;67829;51.968;5.684;2023-08-06T06:05:04;19.1;71.8
78536;SHT31;67829;51.968;5.684;2023-08-06T06:07:33;19.1;72.0
78536;SHT31;67829;51.968;5.684;2023-08-06T06:10:02;19.1;72.2
78536;SHT31;67829;51.968;5.684;2023-08-06T06:12:31;19.1;72.0
78536;SHT31;67829;51.968;5.684;2023-08-06T06:15:01;19.1;71.8
78536;SHT31;67829;51.968;5.684;2023-08-06T06:17:30;19.1;71.9
78536;SHT31;67829;51.968;5.684;2023-08-06T06:19:59;19.1;71.8
78536;SHT31;67829;51.968;5.684;2023-08-06T06:22:31;19.1;71.5
78536;SHT31;67829;51.968;5.684;2023-08-06T06:25:00;19.1;71.2
78536;SHT31;67829;51.968;5.684;2023-08-06T06:27:30;19.2;71.2
78536;SHT31;67829;51.968;5.684;2023-08-06T06:29:59;19.2;71.5
78536;SHT31;67829;51.968;5.684;2023-08-06T06:32:27;19.2;71.1
78536;SHT31;67829;51.968;5.684;2023-08-06T06:34:58;19.2;71.2
78536;SHT31;67829;51.968;5.684;2023-08-06T06:37:27;19.1;71.3
78536;SHT31;67829;51.968;5.684;2023-08-06T06:39:56;19.1;71.3
78536;SHT31;67829;51.968;5.684;2023-08-06T06:42:24;19.1;71.3
78536;SHT31;67829;51.968;5.684;2023-08-06T06:44:53;19.1;71.4
78536;SHT31;67829;51.968;5.684;2023-08-06T06:47:21;19.1;71.2
78536;SHT31;67829;51.968;5.684;2023-08-06T06:49:50;19.1;71.2
78536;SHT31;67829;51.968;5.684;2023-08-06T06:52:19;19.1;71.2
78536;SHT31;67829;51.968;5.684;2023-08-06T06:54:48;19.1;71.3
78536;SHT31;67829;51.968;5.684;2023-08-06T06:57:16;19.1;71.4
78536;SHT31;67829;51.968;5.684;2023-08-06T06:59:45;19.1;71.4
78536;SHT31;67829;51.968;5.684;2023-08-06T07:02:14;19.1;71.7
78536;SHT31;67829;51.968;5.684;2023-08-06T07:04:42;19.2;71.5
78536;SHT31;67829;51.968;5.684;2023-08-06T07:07:11;19.2;71.6
78536;SHT31;67829;51.968;5.684;2023-08-06T07:09:39;19.2;71.2
78536;SHT31;67829;51.968;5.684;2023-08-06T07:12:08;19.2;71.4
78536;SHT31;67829;51.968;5.684;2023-08-06T07:14:39;19.2;71.5
78536;SHT31;67829;51.968;5.684;2023-08-06T07:17:07;19.2;71.4
78536;SHT31;67829;51.968;5.684;2023-08-06T07:19:36;19.2;71.8
78536;SHT31;67829;51.968;5.684;2023-08-06T07:22:05;19.2;71.8
78536;SHT31;67829;51.968;5.684;2023-08-06T07:24:34;19.2;71.6
78536;SHT31;67829;51.968;5.684;2023-08-06T07:27:02;19.2;72.1
78536;SHT31;67829;51.968;5.684;2023-08-06T07:29:33;19.3;72.1
78536;SHT31;67829;51.968;5.684;2023-08-06T07:32:02;19.3;71.8
78536;SHT31;67829;51.968;5.684;2023-08-06T07:34:30;19.4;71.1
78536;SHT31;67829;51.968;5.684;2023-08-06T07:36:59;19.4;70.8
78536;SHT31;67829;51.968;5.684;2023-08-06T07:39:28;19.4;71.3
78536;SHT31;67829;51.968;5.684;2023-08-06T07:41:56;19.5;71.4
78536;SHT31;67829;51.968;5.684;2023-08-06T07:44:25;19.5;70.9
78536;SHT31;67829;51.968;5.684;2023-08-06T07:46:55;19.6;70.3
78536;SHT31;67829;51.968;5.684;2023-08-06T07:49:24;19.6;70.3
78536;SHT31;67829;51.968;5.684;2023-08-06T07:51:53;19.6;70.2
78536;SHT31;67829;51.968;5.684;2023-08-06T07:54:23;19.7;69.8
78536;SHT31;67829;51.968;5.684;2023-08-06T07:56:52;19.7;70.0
78536;SHT31;67829;51.968;5.684;2023-08-06T07:59:21;19.7;69.2
78536;SHT31;67829;51.968;5.684;2023-08-06T08:01:49;19.7;69.5
78536;SHT31;67829;51.968;5.684;2023-08-06T08:04:18;19.7;68.9
78536;SHT31;67829;51.968;5.684;2023-08-06T08:06:47;19.8;69.2
78536;SHT31;67829;51.968;5.684;2023-08-06T08:09:16;19.7;69.3
78536;SHT31;67829;51.968;5.684;2023-08-06T08:11:45;19.7;69.6
78536;SHT31;67829;51.968;5.684;2023-08-06T08:14:14;19.7;69.7
78536;SHT31;67829;51.968;5.684;2023-08-06T08:16:43;19.7;69.6
78536;SHT31;67829;51.968;5.684;2023-08-06T08:19:11;19.7;69.4
78536;SHT31;67829;51.968;5.684;2023-08-06T08:21:40;19.7;69.7
78536;SHT31;67829;51.968;5.684;2023-08-06T08:24:08;19.7;69.9
78536;SHT31;67829;51.968;5.684;2023-08-06T08:26:37;19.7;70.1
78536;SHT31;67829;51.968;5.684;2023-08-06T08:29:05;19.7;70.4
78536;SHT31;67829;51.968;5.684;2023-08-06T08:31:36;19.7;70.3
78536;SHT31;67829;51.968;5.684;2023-08-06T08:34:06;19.7;70.0
78536;SHT31;67829;51.968;5.684;2023-08-06T08:36:34;19.7;70.6
78536;SHT31;67829;51.968;5.684;2023-08-06T08:39:03;19.7;70.1
78536;SHT31;67829;51.968;5.684;2023-08-06T08:41:33;19.7;69.5
78536;SHT31;67829;51.968;5.684;2023-08-06T08:44:05;19.7;70.1
78536;SHT31;67829;51.968;5.684;2023-08-06T08:46:38;19.7;70.3
78536;SHT31;67829;51.968;5.684;2023-08-06T08:49:08;19.6;71.2
78536;SHT31;67829;51.968;5.684;2023-08-06T08:51:37;19.6;70.6
78536;SHT31;67829;51.968;5.684;2023-08-06T08:54:07;19.6;70.9
78536;SHT31;67829;51.968;5.684;2023-08-06T08:56:39;19.6;70.7
78536;SHT31;67829;51.968;5.684;2023-08-06T08:59:07;19.6;70.6
78536;SHT31;67829;51.968;5.684;2023-08-06T09:01:37;19.5;70.5
78536;SHT31;67829;51.968;5.684;2023-08-06T09:04:08;19.5;69.4
78536;SHT31;67829;51.968;5.684;2023-08-06T09:06:41;19.5;70.6
78536;SHT31;67829;51.968;5.684;2023-08-06T09:09:13;19.4;69.2
78536;SHT31;67829;51.968;5.684;2023-08-06T09:11:44;19.4;69.5
78536;SHT31;67829;51.968;5.684;2023-08-06T09:14:16;19.4;69.3
78536;SHT31;67829;51.968;5.684;2023-08-06T09:16:48;19.3;69.6
78536;SHT31;67829;51.968;5.684;2023-08-06T09:19:17;19.3;70.0
78536;SHT31;67829;51.968;5.684;2023-08-06T09:21:46;19.2;69.7
78536;SHT31;67829;51.968;5.684;2023-08-06T09:24:18;19.2;70.0
78536;SHT31;67829;51.968;5.684;2023-08-06T09:26:47;19.2;69.8
78536;SHT31;67829;51.968;5.684;2023-08-06T09:29:15;19.1;70.1
78536;SHT31;67829;51.968;5.684;2023-08-06T09:31:45;19.1;70.1
78536;SHT31;67829;51.968;5.684;2023-08-06T09:34:17;19.1;70.0
78536;SHT31;67829;51.968;5.684;2023-08-06T09:36:49;19.1;69.8
78536;SHT31;67829;51.968;5.684;2023-08-06T09:39:19;19.0;69.9
78536;SHT31;67829;51.968;5.684;2023-08-06T09:41:48;19.0;70.0
78536;SHT31;67829;51.968;5.684;2023-08-06T09:44:18;19.0;69.6
78536;SHT31;67829;51.968;5.684;2023-08-06T09:46:52;18.9;69.4
78536;SHT31;67829;51.968;5.684;2023-08-06T09:49:24;18.9;70.0
78536;SHT31;67829;51.968;5.684;2023-08-06T09:51:54;18.9;70.2
78536;SHT31;67829;51.968;5.684;2023-08-06T09:54:25;18.9;70.2
78536;SHT31;67829;51.968;5.684;2023-08-06T09:56:55;18.8;70.7
78536;SHT31;67829;51.968;5.684;2023-08-06T09:59:24;18.8;71.1
78536;SHT31;67829;51.968;5.684;2023-08-06T10:01:54;18.7;71.7
78536;SHT31;67829;51.968;5.684;2023-08-06T10:04:23;18.7;72.2
78536;SHT31;67829;51.968;5.684;2023-08-06T10:06:54;18.6;72.2
78536;SHT31;67829;51.968;5.684;2023-08-06T10:09:24;18.6;72.6
78536;SHT31;67829;51.968;5.684;2023-08-06T10:11:52;18.5;72.3
78536;SHT31;67829;51.968;5.684;2023-08-06T10:14:27;18.4;72.9
78536;SHT31;67829;51.968;5.684;2023-08-06T10:16:57;18.4;73.2
78536;SHT31;67829;51.968;5.684;2023-08-06T10:19:29;18.3;73.6
78536;SHT31;67829;51.968;5.684;2023-08-06T10:22:10;18.3;73.5
78536;SHT31;67829;51.968;5.684;2023-08-06T10:25:16;18.3;73.4
78536;SHT31;67829;51.968;5.684;2023-08-06T10:27:54;18.2;73.9
78536;SHT31;67829;51.968;5.684;2023-08-06T10:30:25;18.2;73.9
78536;SHT31;67829;51.968;5.684;2023-08-06T10:32:56;18.2;73.8
78536;SHT31;67829;51.968;5.684;2023-08-06T10:35:32;18.2;73.6
78536;SHT31;67829;51.968;5.684;2023-08-06T10:38:08;18.1;73.8
78536;SHT31;67829;51.968;5.684;2023-08-06T10:40:40;18.1;74.5
78536;SHT31;67829;51.968;5.684;2023-08-06T10:43:26;18.1;74.2
78536;SHT31;67829;51.968;5.684;2023-08-06T10:45:57;18.1;74.1
78536;SHT31;67829;51.968;5.684;2023-08-06T10:48:31;18.1;74.1
78536;SHT31;67829;51.968;5.684;2023-08-06T10:51:03;18.1;74.8
78536;SHT31;67829;51.968;5.684;2023-08-06T10:53:33;18.1;74.6
78536;SHT31;67829;51.968;5.684;2023-08-06T10:56:02;18.2;74.2
78536;SHT31;67829;51.968;5.684;2023-08-06T10:58:33;18.3;73.6
78536;SHT31;67829;51.968;5.684;2023-08-06T11:01:02;18.4;74.2
78536;SHT31;67829;51.968;5.684;2023-08-06T11:03:31;18.4;73.3
78536;SHT31;67829;51.968;5.684;2023-08-06T11:06:03;18.5;73.0
78536;SHT31;67829;51.968;5.684;2023-08-06T11:08:34;18.5;73.0
78536;SHT31;67829;51.968;5.684;2023-08-06T11:11:22;18.5;72.5
78536;SHT31;67829;51.968;5.684;2023-08-06T11:13:52;18.5;72.2
78536;SHT31;67829;51.968;5.684;2023-08-06T11:16:23;18.5;72.4
78536;SHT31;67829;51.968;5.684;2023-08-06T11:18:52;18.5;72.6
78536;SHT31;67829;51.968;5.684;2023-08-06T11:21:24;18.5;72.6
78536;SHT31;67829;51.968;5.684;2023-08-06T11:23:53;18.5;73.0
78536;SHT31;67829;51.968;5.684;2023-08-06T11:26:23;18.5;72.4
78536;SHT31;67829;51.968;5.684;2023-08-06T11:28:56;18.5;72.7
78536;SHT31;67829;51.968;5.684;2023-08-06T11:31:24;18.5;73.0
78536;SHT31;67829;51.968;5.684;2023-08-06T11:33:54;18.6;72.6
78536;SHT31;67829;51.968;5.684;2023-08-06T11:36:31;18.6;72.8
78536;SHT31;67829;51.968;5.684;2023-08-06T11:39:00;18.6;72.9
78536;SHT31;67829;51.968;5.684;2023-08-06T11:41:30;18.6;72.4
78536;SHT31;67829;51.968;5.684;2023-08-06T11:43:59;18.6;72.6
78536;SHT31;67829;51.968;5.684;2023-08-06T11:46:28;18.6;72.1
78536;SHT31;67829;51.968;5.684;2023-08-06T11:48:58;18.6;72.4
78536;SHT31;67829;51.968;5.684;2023-08-06T11:51:28;18.6;72.5
78536;SHT31;67829;51.968;5.684;2023-08-06T11:53:58;18.6;71.2
78536;SHT31;67829;51.968;5.684;2023-08-06T11:56:27;18.7;71.7
78536;SHT31;67829;51.968;5.684;2023-08-06T11:58:58;18.7;71.2
78536;SHT31;67829;51.968;5.684;2023-08-06T12:01:27;18.7;72.2
78536;SHT31;67829;51.968;5.684;2023-08-06T12:04:00;18.7;70.7
78536;SHT31;67829;51.968;5.684;2023-08-06T12:06:29;18.7;71.5
78536;SHT31;67829;51.968;5.684;2023-08-06T12:08:57;18.7;71.0
78536;SHT31;67829;51.968;5.684;2023-08-06T12:11:28;18.7;71.5
78536;SHT31;67829;51.968;5.684;2023-08-06T12:13:56;18.7;71.4
78536;SHT31;67829;51.968;5.684;2023-08-06T12:16:25;18.7;71.2
78536;SHT31;67829;51.968;5.684;2023-08-06T12:18:54;18.8;71.2
78536;SHT31;67829;51.968;5.684;2023-08-06T12:21:22;18.8;70.9
78536;SHT31;67829;51.968;5.684;2023-08-06T12:23:51;18.8;69.6
78536;SHT31;67829;51.968;5.684;2023-08-06T12:26:19;18.8;68.4
78536;SHT31;67829;51.968;5.684;2023-08-06T12:28:48;18.8;66.9
78536;SHT31;67829;51.968;5.684;2023-08-06T12:31:16;18.7;68.0
78536;SHT31;67829;51.968;5.684;2023-08-06T12:33:45;18.7;67.2
78536;SHT31;67829;51.968;5.684;2023-08-06T12:36:14;18.7;67.7
78536;SHT31;67829;51.968;5.684;2023-08-06T12:38:42;18.6;68.0
78536;SHT31;67829;51.968;5.684;2023-08-06T12:41:11;18.6;68.0
78536;SHT31;67829;51.968;5.684;2023-08-06T12:43:39;18.6;68.8
78536;SHT31;67829;51.968;5.684;2023-08-06T12:46:08;18.6;69.2
78536;SHT31;67829;51.968;5.684;2023-08-06T12:48:36;18.6;69.7
78536;SHT31;67829;51.968;5.684;2023-08-06T12:51:05;18.6;69.6
78536;SHT31;67829;51.968;5.684;2023-08-06T12:53:34;18.5;70.6
78536;SHT31;67829;51.968;5.684;2023-08-06T12:56:03;18.6;70.6
78536;SHT31;67829;51.968;5.684;2023-08-06T12:58:32;18.6;71.0
78536;SHT31;67829;51.968;5.684;2023-08-06T13:01:00;18.6;70.7
78536;SHT31;67829;51.968;5.684;2023-08-06T13:03:29;18.6;71.6
78536;SHT31;67829;51.968;5.684;2023-08-06T13:05:57;18.6;71.5
78536;SHT31;67829;51.968;5.684;2023-08-06T13:08:26;18.6;71.7
78536;SHT31;67829;51.968;5.684;2023-08-06T13:10:55;18.6;71.5
78536;SHT31;67829;51.968;5.684;2023-08-06T13:13:23;18.7;71.9
78536;SHT31;67829;51.968;5.684;2023-08-06T13:15:53;18.7;71.7
78536;SHT31;67829;51.968;5.684;2023-08-06T13:18:22;18.7;71.4
78536;SHT31;67829;51.968;5.684;2023-08-06T13:20:54;18.8;72.1
78536;SHT31;67829;51.968;5.684;2023-08-06T13:23:23;18.8;72.1
78536;SHT31;67829;51.968;5.684;2023-08-06T13:25:53;18.8;71.5
78536;SHT31;67829;51.968;5.684;2023-08-06T13:28:22;18.9;71.4
78536;SHT31;67829;51.968;5.684;2023-08-06T13:30:51;18.9;71.6
78536;SHT31;67829;51.968;5.684;2023-08-06T13:33:19;18.9;71.8
78536;SHT31;67829;51.968;5.684;2023-08-06T13:35:48;18.9;71.8
78536;SHT31;67829;51.968;5.684;2023-08-06T13:38:17;19.0;72.1
78536;SHT31;67829;51.968;5.684;2023-08-06T13:40:48;19.0;72.1
78536;SHT31;67829;51.968;5.684;2023-08-06T13:43:17;19.0;71.5
78536;SHT31;67829;51.968;5.684;2023-08-06T13:45:45;19.1;71.4
78536;SHT31;67829;51.968;5.684;2023-08-06T13:48:14;19.1;71.8
78536;SHT31;67829;51.968;5.684;2023-08-06T13:50:42;19.1;72.2
78536;SHT31;67829;51.968;5.684;2023-08-06T13:53:11;19.1;71.7
78536;SHT31;67829;51.968;5.684;2023-08-06T13:55:40;19.2;72.0
78536;SHT31;67829;51.968;5.684;2023-08-06T13:58:08;19.2;72.1
78536;SHT31;67829;51.968;5.684;2023-08-06T14:00:37;19.2;72.0
78536;SHT31;67829;51.968;5.684;2023-08-06T14:03:06;19.2;71.9
78536;SHT31;67829;51.968;5.684;2023-08-06T14:05:35;19.3;72.1
78536;SHT31;67829;51.968;5.684;2023-08-06T14:08:03;19.3;71.0
78536;SHT31;67829;51.968;5.684;2023-08-06T14:10:32;19.3;71.5
78536;SHT31;67829;51.968;5.684;2023-08-06T14:13:01;19.3;71.0
78536;SHT31;67829;51.968;5.684;2023-08-06T14:15:29;19.3;71.4
78536;SHT31;67829;51.968;5.684;2023-08-06T14:17:59;19.3;71.5
78536;SHT31;67829;51.968;5.684;2023-08-06T14:20:28;19.3;71.2
78536;SHT31;67829;51.968;5.684;2023-08-06T14:22:57;19.3;71.7
78536;SHT31;67829;51.968;5.684;2023-08-06T14:25:26;19.3;71.7
78536;SHT31;67829;51.968;5.684;2023-08-06T14:27:55;19.3;71.1
78536;SHT31;67829;51.968;5.684;2023-08-06T14:30:23;19.3;71.1
78536;SHT31;67829;51.968;5.684;2023-08-06T14:32:52;19.3;71.5
78536;SHT31;67829;51.968;5.684;2023-08-06T14:35:20;19.2;71.2
78536;SHT31;67829;51.968;5.684;2023-08-06T14:37:49;19.2;71.8
78536;SHT31;67829;51.968;5.684;2023-08-06T14:40:20;19.2;72.2
78536;SHT31;67829;51.968;5.684;2023-08-06T14:42:48;19.2;72.1
78536;SHT31;67829;51.968;5.684;2023-08-06T14:45:17;19.2;71.9
78536;SHT31;67829;51.968;5.684;2023-08-06T14:47:46;19.2;71.9
78536;SHT31;67829;51.968;5.684;2023-08-06T14:50:14;19.2;72.6
78536;SHT31;67829;51.968;5.684;2023-08-06T14:52:43;19.2;72.6
78536;SHT31;67829;51.968;5.684;2023-08-06T14:55:25;19.2;72.4
78536;SHT31;67829;51.968;5.684;2023-08-06T14:57:54;19.2;72.5
78536;SHT31;67829;51.968;5.684;2023-08-06T15:00:25;19.2;72.5
78536;SHT31;67829;51.968;5.684;2023-08-06T15:02:53;19.2;72.6
78536;SHT31;67829;51.968;5.684;2023-08-06T15:05:22;19.2;72.5
78536;SHT31;67829;51.968;5.684;2023-08-06T15:07:50;19.2;72.5
78536;SHT31;67829;51.968;5.684;2023-08-06T15:10:19;19.2;73.1
78536;SHT31;67829;51.968;5.684;2023-08-06T15:12:48;19.2;73.1
78536;SHT31;67829;51.968;5.684;2023-08-06T15:15:18;19.2;72.8
78536;SHT31;67829;51.968;5.684;2023-08-06T15:17:46;19.2;72.9
78536;SHT31;67829;51.968;5.684;2023-08-06T15:20:15;19.2;72.3
78536;SHT31;67829;51.968;5.684;2023-08-06T15:22:44;19.2;72.5
78536;SHT31;67829;51.968;5.684;2023-08-06T15:25:14;19.2;72.2
78536;SHT31;67829;51.968;5.684;2023-08-06T15:27:43;19.2;72.3
78536;SHT31;67829;51.968;5.684;2023-08-06T15:30:12;19.2;72.1
78536;SHT31;67829;51.968;5.684;2023-08-06T15:32:40;19.2;72.4
78536;SHT31;67829;51.968;5.684;2023-08-06T15:35:11;19.2;72.3
78536;SHT31;67829;51.968;5.684;2023-08-06T15:37:39;19.3;72.3
78536;SHT31;67829;51.968;5.684;2023-08-06T15:40:09;19.3;72.4
78536;SHT31;67829;51.968;5.684;2023-08-06T15:42:38;19.3;71.7
78536;SHT31;67829;51.968;5.684;2023-08-06T15:45:07;19.3;71.5
78536;SHT31;67829;51.968;5.684;2023-08-06T15:47:36;19.3;71.8
78536;SHT31;67829;51.968;5.684;2023-08-06T15:50:07;19.2;70.7
78536;SHT31;67829;51.968;5.684;2023-08-06T15:52:36;19.2;70.9
78536;SHT31;67829;51.968;5.684;2023-08-06T15:55:06;19.2;70.6
78536;SHT31;67829;51.968;5.684;2023-08-06T15:57:35;19.2;69.7
78536;SHT31;67829;51.968;5.684;2023-08-06T16:00:04;19.1;69.7
78536;SHT31;67829;51.968;5.684;2023-08-06T16:02:33;19.1;70.3
78536;SHT31;67829;51.968;5.684;2023-08-06T16:05:02;19.1;70.1
78536;SHT31;67829;51.968;5.684;2023-08-06T16:07:31;19.0;70.5
78536;SHT31;67829;51.968;5.684;2023-08-06T16:10:01;19.0;70.9
78536;SHT31;67829;51.968;5.684;2023-08-06T16:12:30;19.0;70.3
78536;SHT31;67829;51.968;5.684;2023-08-06T16:14:58;19.0;70.6
78536;SHT31;67829;51.968;5.684;2023-08-06T16:17:27;18.9;70.9